Skip Navigation Links Skip Navigation Links

Current Weather

Alert, Nunavut

For information only: do not use for flight planning or navigation.
Latest weather
Observation time Friday, November 17, 2017 4:00 PM EST
Local time Friday, November 17, 2017 4:19 PM EST
Flight conditions Visual Meteorological Conditions
Winds
Wind speed calm
Visibility 15 mi.
Sky condition
Ceiling unlimited
Cloud layer few clouds 1,000 ft.
Cloud layer few clouds 13,000 ft.
Cloud layer scattered clouds 16,000 ft.
Temperature -18°F
Dewpoint -27°F
Altimeter 30.40 in.Hg
Derived measurements
Relative humidity 62%
Wind chill -18°F
Density altitude -6168 ft.
Sea-level pressure 30.42 in.Hg
METAR CYLT 172100Z 00000KT 15SM FEW010 FEW130 SCT160 M28/M33 A3040 RMK ST1AC1AC1 SLP302

Settings

Location code

InnerDrive.Weather 4.0.6144.1 Release CLR 4.0.30319.36366
Copyright ©2015 Inner Drive Technology. All rights reserved. Portions Copyright ©1986-2015 David Braverman.

Find weather

Site navigation


Skip Navigation Links

Place info

Page info

PayPal - The safer, easier way to pay online!

Return home.

Copyright ©2017 Inner Drive Technology. Purveyors of fine, hand-crafted computer software. Page printed 2017-11-17T21:19:43 UTC.